createdAt,value
2022-07-29T00:02:46.208Z,15955.92285
2022-07-29T00:17:48.573Z,16026.68262
2022-07-29T00:32:50.978Z,15708.74707
2022-07-29T00:47:53.400Z,13032.46289
2022-07-29T01:02:55.705Z,10583.96973
2022-07-29T01:17:58.026Z,5237.21826
2022-07-29T01:33:00.314Z,1486.93188
2022-07-29T01:48:02.770Z,1102.11316
2022-07-29T02:03:05.031Z,794.83972
2022-07-29T02:18:07.367Z,600.00708
2022-07-29T02:33:09.689Z,505.98334
2022-07-29T02:48:11.988Z,354.76993
2022-07-29T03:03:14.489Z,214.21899
2022-07-29T03:18:16.848Z,98.87031
2022-07-29T03:33:19.707Z,27.14087
2022-07-29T03:48:22.728Z,8.72385
2022-07-29T04:03:25.094Z,0.96932
2022-07-29T04:18:27.473Z,0
2022-07-29T04:33:29.677Z,0
2022-07-29T04:48:32.135Z,0
2022-07-29T05:03:34.483Z,0
2022-07-29T05:18:36.790Z,0
2022-07-29T05:33:39.112Z,0
2022-07-29T05:48:41.487Z,0
2022-07-29T06:03:43.901Z,0
2022-07-29T06:18:46.257Z,0
2022-07-29T06:33:48.761Z,0
2022-07-29T06:48:51.221Z,0
2022-07-29T07:03:53.657Z,0
2022-07-29T07:18:55.988Z,0
2022-07-29T07:33:58.272Z,0
2022-07-29T07:49:00.569Z,0
2022-07-29T08:04:02.895Z,0
2022-07-29T08:19:05.204Z,0
2022-07-29T08:34:07.497Z,0
2022-07-29T08:49:09.968Z,0
2022-07-29T09:04:12.312Z,0
2022-07-29T09:19:14.544Z,0
2022-07-29T09:34:16.874Z,0
2022-07-29T09:49:19.279Z,0
2022-07-29T10:04:21.639Z,0
2022-07-29T10:19:23.926Z,0
2022-07-29T10:34:26.193Z,0
2022-07-29T10:49:30.612Z,0
2022-07-29T11:04:33.249Z,0
2022-07-29T11:19:35.830Z,0
2022-07-29T11:34:38.296Z,0
2022-07-29T11:49:44.517Z,0.96932
2022-07-29T12:04:47.074Z,8.72385
2022-07-29T12:19:49.375Z,38.77267
2022-07-29T12:34:53.309Z,130.85776
2022-07-29T12:49:55.714Z,268.50073
2022-07-29T13:04:58.088Z,453.64023
2022-07-29T13:20:00.470Z,684.33759
2022-07-29T13:35:06.338Z,430.37662
2022-07-29T13:50:08.573Z,712.44781
2022-07-29T14:05:10.939Z,895.64862
2022-07-29T14:20:13.392Z,1762.21777
2022-07-29T14:35:15.689Z,1785.48145
2022-07-29T14:50:17.956Z,2741.22778
2022-07-29T15:05:34.387Z,2883.71729
2022-07-29T15:20:36.730Z,2352.53174
2022-07-29T15:35:39.913Z,2765.46069
2022-07-29T15:50:43.156Z,5162.58105
2022-07-29T16:05:49.645Z,6223.98242
2022-07-29T16:20:51.963Z,5807.17627
2022-07-29T16:35:54.235Z,5807.17627
2022-07-29T16:50:56.496Z,5743.20166
2022-07-29T17:05:58.781Z,5732.53906
2022-07-29T17:21:01.200Z,5808.146
2022-07-29T17:36:03.464Z,5683.104
2022-07-29T17:51:05.786Z,5575.50977
2022-07-29T18:06:08.010Z,5485.36328
2022-07-29T18:21:10.318Z,5766.46533
2022-07-29T18:36:12.596Z,5815.90039
2022-07-29T18:51:14.960Z,5737.38574
2022-07-29T19:06:22.648Z,5572.60205
2022-07-29T19:21:27.875Z,5573.57129
2022-07-29T19:36:30.152Z,5478.57812
2022-07-29T19:51:32.443Z,5617.19043
2022-07-29T20:06:34.736Z,5729.63135
2022-07-29T20:21:37.275Z,5856.61182
2022-07-29T20:36:39.592Z,4693.43164
2022-07-29T20:51:43.427Z,5919.61719
2022-07-29T21:06:46.358Z,5646.27002
2022-07-29T21:21:48.596Z,5969.05225
2022-07-29T21:36:51.021Z,7012.03711
2022-07-29T21:51:53.357Z,8478.61328
2022-07-29T22:06:55.696Z,9729.03223
2022-07-29T22:21:57.952Z,11227.5957
2022-07-29T22:37:00.419Z,12035.03613
2022-07-29T22:52:03.080Z,12432.45605
2022-07-29T23:07:05.440Z,13378.50977
2022-07-29T23:22:07.706Z,14446.69629
2022-07-29T23:37:09.983Z,15042.82617
2022-07-29T23:52:12.261Z,15533.30078
